FDX1617 KIAH-KIND
Flight info
| Callsign | FDX1617 |
|---|---|
| Flight time | N/A |
| Altitude | 41000 |
| Route | INDIE8 TPAKK LIT J131 PXV RACYR6 |
| Aircraft | MD11/H-SDE1E2E3FGHIJ2J3J4J5M1RWXY/LB1D1 |
Departure
| Time | 2026-05-04 03:27 |
|---|---|
| Airport | George Bush Intercontinental Airport (KIAH) |
Arrival
| Time | N/A |
|---|---|
| Airport | Indianapolis International Airport (KIND) |
| Time | Latitude | Longitude | Altitude | Speed | Heading |
|---|---|---|---|---|---|
| 2026-05-04 02:55 | 29.99291 | -95.31027 | 112 ft | 0 kts | 180° |
| 2026-05-04 02:56 | 29.99283 | -95.31027 | 115 ft | 0 kts | 180° |
| 2026-05-04 02:56 | 29.99291 | -95.31027 | 115 ft | 0 kts | 180° |
| 2026-05-04 03:10 | 29.99301 | -95.31027 | 111 ft | 4 kts | 180° |
| 2026-05-04 03:10 | 29.99324 | -95.31028 | 114 ft | 4 kts | 181° |
| 2026-05-04 03:11 | 29.99349 | -95.31024 | 113 ft | 4 kts | 208° |
| 2026-05-04 03:11 | 29.99365 | -95.31009 | 113 ft | 4 kts | 250° |
| 2026-05-04 03:11 | 29.99370 | -95.30981 | 112 ft | 4 kts | 270° |
| 2026-05-04 03:11 | 29.99370 | -95.30951 | 111 ft | 4 kts | 270° |
| 2026-05-04 03:12 | 29.99370 | -95.30937 | 110 ft | 0 kts | 270° |
| 2026-05-04 03:14 | 29.99370 | -95.30954 | 111 ft | 7 kts | 270° |
| 2026-05-04 03:14 | 29.99369 | -95.31057 | 111 ft | 18 kts | 270° |
| 2026-05-04 03:15 | 29.99369 | -95.31166 | 112 ft | 0 kts | 270° |
| 2026-05-04 03:15 | 29.99369 | -95.31169 | 112 ft | 3 kts | 269° |
| 2026-05-04 03:16 | 29.99366 | -95.31235 | 114 ft | 10 kts | 260° |
| 2026-05-04 03:16 | 29.99312 | -95.31288 | 112 ft | 12 kts | 194° |
| 2026-05-04 03:16 | 29.99220 | -95.31292 | 113 ft | 14 kts | 179° |
| 2026-05-04 03:16 | 29.99117 | -95.31297 | 111 ft | 11 kts | 197° |
| 2026-05-04 03:17 | 29.99088 | -95.31331 | 111 ft | 6 kts | 245° |
| 2026-05-04 03:17 | 29.99080 | -95.31379 | 115 ft | 13 kts | 265° |
| 2026-05-04 03:17 | 29.99079 | -95.31548 | 115 ft | 19 kts | 270° |
| 2026-05-04 03:17 | 29.99079 | -95.31701 | 115 ft | 19 kts | 270° |
| 2026-05-04 03:18 | 29.99079 | -95.31866 | 115 ft | 21 kts | 270° |
| 2026-05-04 03:18 | 29.99078 | -95.31981 | 115 ft | 21 kts | 270° |
| 2026-05-04 03:18 | 29.99077 | -95.32145 | 115 ft | 21 kts | 270° |
| 2026-05-04 03:18 | 29.99078 | -95.32309 | 115 ft | 20 kts | 270° |
| 2026-05-04 03:19 | 29.99079 | -95.32471 | 115 ft | 20 kts | 273° |
| 2026-05-04 03:19 | 29.99087 | -95.32630 | 111 ft | 20 kts | 270° |
| 2026-05-04 03:19 | 29.99088 | -95.32787 | 111 ft | 19 kts | 270° |
| 2026-05-04 03:19 | 29.99089 | -95.32942 | 111 ft | 19 kts | 270° |
| 2026-05-04 03:20 | 29.99090 | -95.33095 | 111 ft | 19 kts | 270° |
| 2026-05-04 03:20 | 29.99090 | -95.33246 | 111 ft | 19 kts | 270° |
| 2026-05-04 03:20 | 29.99089 | -95.33395 | 111 ft | 18 kts | 270° |
| 2026-05-04 03:20 | 29.99089 | -95.33542 | 111 ft | 18 kts | 270° |
| 2026-05-04 03:21 | 29.99088 | -95.33690 | 111 ft | 19 kts | 270° |
| 2026-05-04 03:21 | 29.99088 | -95.33844 | 111 ft | 19 kts | 270° |
| 2026-05-04 03:21 | 29.99087 | -95.33997 | 112 ft | 19 kts | 269° |
| 2026-05-04 03:21 | 29.99085 | -95.34148 | 112 ft | 19 kts | 269° |
| 2026-05-04 03:22 | 29.99084 | -95.34296 | 112 ft | 18 kts | 270° |
| 2026-05-04 03:22 | 29.99084 | -95.34443 | 112 ft | 18 kts | 270° |
| 2026-05-04 03:22 | 29.99084 | -95.34588 | 112 ft | 18 kts | 270° |
| 2026-05-04 03:22 | 29.99083 | -95.34732 | 112 ft | 18 kts | 270° |
| 2026-05-04 03:23 | 29.99084 | -95.34874 | 112 ft | 18 kts | 272° |
| 2026-05-04 03:23 | 29.99089 | -95.35014 | 111 ft | 17 kts | 271° |
| 2026-05-04 03:23 | 29.99090 | -95.35153 | 111 ft | 17 kts | 270° |
| 2026-05-04 03:23 | 29.99089 | -95.35290 | 111 ft | 17 kts | 270° |
| 2026-05-04 03:24 | 29.99087 | -95.35425 | 111 ft | 16 kts | 263° |
| 2026-05-04 03:24 | 29.99036 | -95.35482 | 113 ft | 9 kts | 188° |
| 2026-05-04 03:24 | 29.98975 | -95.35484 | 113 ft | 11 kts | 182° |
| 2026-05-04 03:24 | 29.98906 | -95.35526 | 111 ft | 14 kts | 227° |
| 2026-05-04 03:25 | 29.98854 | -95.35621 | 112 ft | 14 kts | 240° |
| 2026-05-04 03:25 | 29.98831 | -95.35670 | 112 ft | 0 kts | 242° |
| 2026-05-04 03:25 | 29.98826 | -95.35680 | 113 ft | 6 kts | 242° |
| 2026-05-04 03:26 | 29.98794 | -95.35732 | 113 ft | 9 kts | 220° |
| 2026-05-04 03:26 | 29.98724 | -95.35739 | 113 ft | 13 kts | 162° |
| 2026-05-04 03:26 | 29.98670 | -95.35711 | 113 ft | 10 kts | 152° |
| 2026-05-04 03:26 | 29.98287 | -95.35476 | 112 ft | 117 kts | 152° |
| 2026-05-04 03:27 | 29.97323 | -95.34889 | 359 ft | 184 kts | 153° |
| 2026-05-04 03:27 | 29.96105 | -95.34118 | 1097 ft | 209 kts | 150° |
| 2026-05-04 03:27 | 29.95073 | -95.33044 | 2149 ft | 198 kts | 126° |
| 2026-05-04 03:27 | 29.94692 | -95.31496 | 3165 ft | 210 kts | 87° |
| 2026-05-04 03:28 | 29.95234 | -95.29929 | 4129 ft | 218 kts | 52° |
| 2026-05-04 03:28 | 29.96467 | -95.28873 | 5017 ft | 229 kts | 27° |
| 2026-05-04 03:28 | 29.97994 | -95.28057 | 5632 ft | 256 kts | 20° |
| 2026-05-04 03:28 | 29.99732 | -95.27459 | 6575 ft | 265 kts | 14° |
| 2026-05-04 03:29 | 30.01538 | -95.26920 | 7761 ft | 268 kts | 14° |
| 2026-05-04 03:29 | 30.03356 | -95.26366 | 9157 ft | 274 kts | 13° |
| 2026-05-04 03:29 | 30.05222 | -95.25779 | 10468 ft | 281 kts | 14° |
| 2026-05-04 03:29 | 30.07139 | -95.25158 | 11548 ft | 299 kts | 14° |
| 2026-05-04 03:30 | 30.09303 | -95.24448 | 11710 ft | 347 kts | 14° |
| 2026-05-04 03:30 | 30.11735 | -95.23635 | 12319 ft | 373 kts | 14° |
| 2026-05-04 03:30 | 30.14219 | -95.22787 | 13548 ft | 380 kts | 14° |
| 2026-05-04 03:30 | 30.16775 | -95.21908 | 14654 ft | 387 kts | 14° |
| 2026-05-04 03:31 | 30.19394 | -95.21006 | 15063 ft | 392 kts | 14° |
| 2026-05-04 03:31 | 30.22014 | -95.20100 | 15418 ft | 393 kts | 14° |
| 2026-05-04 03:31 | 30.24638 | -95.19192 | 15780 ft | 395 kts | 13° |
| 2026-05-04 03:31 | 30.27282 | -95.18277 | 15953 ft | 397 kts | 13° |
| 2026-05-04 03:32 | 30.29929 | -95.17361 | 17052 ft | 397 kts | 13° |
| 2026-05-04 03:32 | 30.32595 | -95.16438 | 18110 ft | 402 kts | 13° |
| 2026-05-04 03:32 | 30.35292 | -95.15505 | 19023 ft | 406 kts | 12° |
| 2026-05-04 03:32 | 30.38015 | -95.14563 | 19871 ft | 411 kts | 12° |
| 2026-05-04 03:33 | 30.40743 | -95.13619 | 20686 ft | 415 kts | 12° |
| 2026-05-04 03:33 | 30.43527 | -95.12654 | 21531 ft | 420 kts | 12° |
| 2026-05-04 03:33 | 30.46339 | -95.11679 | 22404 ft | 424 kts | 11° |
| 2026-05-04 03:33 | 30.49185 | -95.10691 | 23290 ft | 429 kts | 11° |
| 2026-05-04 03:34 | 30.52066 | -95.09691 | 24101 ft | 434 kts | 11° |
| 2026-05-04 03:34 | 30.54980 | -95.08678 | 24871 ft | 439 kts | 11° |
| 2026-05-04 03:34 | 30.57920 | -95.07656 | 25684 ft | 443 kts | 11° |
| 2026-05-04 03:34 | 30.60847 | -95.06406 | 26445 ft | 454 kts | 17° |
| 2026-05-04 03:35 | 30.63719 | -95.04778 | 27221 ft | 464 kts | 21° |
| 2026-05-04 03:35 | 30.66568 | -95.02950 | 27982 ft | 471 kts | 22° |
| 2026-05-04 03:35 | 30.69429 | -95.01035 | 28723 ft | 477 kts | 22° |
| 2026-05-04 03:35 | 30.72317 | -94.99095 | 29464 ft | 482 kts | 22° |
| 2026-05-04 03:36 | 30.75246 | -94.97145 | 30167 ft | 487 kts | 21° |
| 2026-05-04 03:36 | 30.78211 | -94.95196 | 30761 ft | 492 kts | 21° |
| 2026-05-04 03:36 | 30.81163 | -94.93269 | 31335 ft | 494 kts | 20° |
| 2026-05-04 03:36 | 30.84158 | -94.91320 | 32048 ft | 492 kts | 20° |
| 2026-05-04 03:37 | 30.87140 | -94.89380 | 32827 ft | 490 kts | 19° |
| 2026-05-04 03:37 | 30.90104 | -94.87451 | 33583 ft | 487 kts | 19° |
| 2026-05-04 03:37 | 30.93057 | -94.85532 | 34265 ft | 485 kts | 19° |
| 2026-05-04 03:37 | 30.96006 | -94.83614 | 34869 ft | 482 kts | 18° |
| 2026-05-04 03:38 | 30.98927 | -94.81714 | 35470 ft | 480 kts | 18° |
| 2026-05-04 03:38 | 31.01836 | -94.79820 | 36063 ft | 478 kts | 18° |
| 2026-05-04 03:38 | 31.04730 | -94.77935 | 36637 ft | 475 kts | 18° |
| 2026-05-04 03:38 | 31.07608 | -94.76058 | 37203 ft | 473 kts | 17° |
| 2026-05-04 03:39 | 31.10479 | -94.74186 | 37756 ft | 471 kts | 17° |
| 2026-05-04 03:39 | 31.13328 | -94.72325 | 38300 ft | 469 kts | 17° |
| 2026-05-04 03:39 | 31.16173 | -94.70467 | 38851 ft | 467 kts | 17° |
| 2026-05-04 03:39 | 31.19011 | -94.68614 | 39175 ft | 468 kts | 17° |
| 2026-05-04 03:40 | 31.21823 | -94.66781 | 39518 ft | 468 kts | 17° |
| 2026-05-04 03:40 | 31.24674 | -94.64923 | 39870 ft | 468 kts | 17° |
| 2026-05-04 03:40 | 31.27495 | -94.63083 | 40212 ft | 468 kts | 17° |
| 2026-05-04 03:40 | 31.30336 | -94.61230 | 40538 ft | 467 kts | 17° |
| 2026-05-04 03:41 | 31.33178 | -94.59375 | 40871 ft | 467 kts | 17° |
| 2026-05-04 03:41 | 31.35880 | -94.57611 | 41060 ft | 469 kts | 17° |
| 2026-05-04 03:41 | 31.38726 | -94.55751 | 41108 ft | 468 kts | 18° |
| 2026-05-04 03:42 | 31.44412 | -94.52029 | 41162 ft | 468 kts | 18° |
| 2026-05-04 03:42 | 31.50095 | -94.48256 | 41126 ft | 470 kts | 19° |
| 2026-05-04 03:43 | 31.55738 | -94.44343 | 41127 ft | 472 kts | 19° |
| 2026-05-04 03:43 | 31.61355 | -94.40411 | 41127 ft | 472 kts | 19° |
| 2026-05-04 03:44 | 31.66995 | -94.36469 | 41124 ft | 472 kts | 19° |
| 2026-05-04 03:44 | 31.72632 | -94.32533 | 41158 ft | 472 kts | 19° |
| 2026-05-04 03:45 | 31.78286 | -94.28584 | 41120 ft | 473 kts | 19° |
| 2026-05-04 03:45 | 31.83910 | -94.24646 | 41122 ft | 473 kts | 20° |
| 2026-05-04 03:46 | 31.89568 | -94.20678 | 41118 ft | 473 kts | 20° |
| 2026-05-04 03:46 | 31.95224 | -94.16708 | 41122 ft | 474 kts | 20° |
| 2026-05-04 03:47 | 32.00886 | -94.12727 | 41148 ft | 474 kts | 20° |
| 2026-05-04 03:47 | 32.06557 | -94.08733 | 41112 ft | 474 kts | 20° |
| 2026-05-04 03:48 | 32.12225 | -94.04735 | 41104 ft | 474 kts | 20° |
| 2026-05-04 03:48 | 32.17790 | -94.00805 | 41109 ft | 474 kts | 20° |
| 2026-05-04 03:49 | 32.23451 | -93.96789 | 41100 ft | 475 kts | 20° |
| 2026-05-04 03:49 | 32.29113 | -93.92765 | 41143 ft | 475 kts | 20° |
| 2026-05-04 03:50 | 32.34766 | -93.88750 | 41110 ft | 474 kts | 20° |
| 2026-05-04 03:50 | 32.40439 | -93.84720 | 41108 ft | 474 kts | 20° |
| 2026-05-04 03:51 | 32.46092 | -93.80700 | 41120 ft | 474 kts | 20° |
| 2026-05-04 03:51 | 32.51743 | -93.76673 | 41113 ft | 474 kts | 20° |
| 2026-05-04 03:52 | 32.57388 | -93.72644 | 41147 ft | 474 kts | 20° |
| 2026-05-04 03:52 | 32.63002 | -93.68633 | 41110 ft | 474 kts | 20° |
| 2026-05-04 03:53 | 32.68648 | -93.64593 | 41102 ft | 474 kts | 20° |
| 2026-05-04 03:53 | 32.74297 | -93.60544 | 41094 ft | 474 kts | 20° |
| 2026-05-04 03:54 | 32.79943 | -93.56491 | 41092 ft | 474 kts | 20° |
| 2026-05-04 03:54 | 32.85589 | -93.52432 | 41110 ft | 474 kts | 20° |
| 2026-05-04 03:55 | 32.91223 | -93.48374 | 41087 ft | 474 kts | 20° |
| 2026-05-04 03:55 | 32.96813 | -93.44326 | 41079 ft | 474 kts | 20° |
| 2026-05-04 03:56 | 33.02473 | -93.40312 | 41071 ft | 472 kts | 19° |
| 2026-05-04 03:56 | 33.08163 | -93.36401 | 41074 ft | 471 kts | 19° |
| 2026-05-04 03:57 | 33.13854 | -93.32499 | 41091 ft | 471 kts | 19° |
| 2026-05-04 03:57 | 33.19537 | -93.28588 | 41083 ft | 472 kts | 19° |
| 2026-05-04 03:58 | 33.28027 | -93.22725 | 41083 ft | 472 kts | 19° |
| 2026-05-04 03:58 | 33.33708 | -93.18792 | 41081 ft | 472 kts | 19° |
| 2026-05-04 03:59 | 33.39395 | -93.14852 | 41077 ft | 472 kts | 19° |
| 2026-05-04 03:59 | 33.45069 | -93.10913 | 41070 ft | 472 kts | 19° |
| 2026-05-04 04:00 | 33.50744 | -93.06967 | 41066 ft | 471 kts | 19° |
| 2026-05-04 04:00 | 33.56411 | -93.03021 | 41070 ft | 470 kts | 19° |
| 2026-05-04 04:01 | 33.62041 | -92.99094 | 41061 ft | 469 kts | 19° |
| 2026-05-04 04:01 | 33.67684 | -92.95154 | 41066 ft | 469 kts | 19° |
| 2026-05-04 04:02 | 33.73325 | -92.91201 | 41060 ft | 469 kts | 19° |
| 2026-05-04 04:02 | 33.78951 | -92.87243 | 41057 ft | 469 kts | 19° |
| 2026-05-04 04:03 | 33.84587 | -92.83281 | 41061 ft | 468 kts | 19° |
| 2026-05-04 04:03 | 33.90208 | -92.79331 | 41053 ft | 468 kts | 19° |
| 2026-05-04 04:04 | 33.95830 | -92.75374 | 41068 ft | 467 kts | 20° |
| 2026-05-04 04:05 | 34.06722 | -92.67692 | 41050 ft | 467 kts | 20° |
| 2026-05-04 04:05 | 34.12332 | -92.63726 | 41052 ft | 467 kts | 20° |
| 2026-05-04 04:06 | 34.17894 | -92.59787 | 41049 ft | 466 kts | 20° |
| 2026-05-04 04:06 | 34.23531 | -92.55791 | 41053 ft | 467 kts | 20° |
| 2026-05-04 04:07 | 34.29102 | -92.51834 | 41050 ft | 467 kts | 20° |
| 2026-05-04 04:07 | 34.34706 | -92.47847 | 41046 ft | 467 kts | 20° |
| 2026-05-04 04:08 | 34.40313 | -92.43851 | 41046 ft | 467 kts | 20° |
| 2026-05-04 04:08 | 34.45911 | -92.39846 | 41077 ft | 468 kts | 21° |
| 2026-05-04 04:09 | 34.51509 | -92.35827 | 41054 ft | 468 kts | 21° |
| 2026-05-04 04:09 | 34.57116 | -92.31807 | 41053 ft | 468 kts | 21° |
| 2026-05-04 04:10 | 34.62684 | -92.27814 | 41057 ft | 468 kts | 21° |
| 2026-05-04 04:10 | 34.68283 | -92.23794 | 41047 ft | 469 kts | 21° |
| 2026-05-04 04:11 | 34.73900 | -92.19754 | 41059 ft | 469 kts | 21° |
| 2026-05-04 04:11 | 34.79525 | -92.15701 | 41047 ft | 469 kts | 21° |
| 2026-05-04 04:12 | 34.84907 | -92.11051 | 41026 ft | 485 kts | 35° |
| 2026-05-04 04:12 | 34.89478 | -92.04936 | 41026 ft | 494 kts | 42° |
| 2026-05-04 04:13 | 34.93885 | -91.98501 | 41026 ft | 494 kts | 41° |
| 2026-05-04 04:13 | 34.98363 | -91.92144 | 41053 ft | 493 kts | 41° |
| 2026-05-04 04:14 | 35.02889 | -91.85850 | 41034 ft | 493 kts | 41° |
| 2026-05-04 04:14 | 35.07425 | -91.79563 | 41029 ft | 493 kts | 41° |
| 2026-05-04 04:15 | 35.11953 | -91.73269 | 41029 ft | 493 kts | 41° |
| 2026-05-04 04:15 | 35.16450 | -91.67002 | 41046 ft | 493 kts | 41° |
| 2026-05-04 04:16 | 35.20965 | -91.60694 | 41046 ft | 493 kts | 41° |
| 2026-05-04 04:16 | 35.25482 | -91.54373 | 41058 ft | 493 kts | 41° |
| 2026-05-04 04:17 | 35.29966 | -91.48088 | 41040 ft | 493 kts | 41° |
| 2026-05-04 04:17 | 35.34474 | -91.41755 | 41048 ft | 493 kts | 41° |
| 2026-05-04 04:18 | 35.38972 | -91.35422 | 41042 ft | 493 kts | 41° |
| 2026-05-04 04:18 | 35.43463 | -91.29050 | 41060 ft | 493 kts | 41° |
| 2026-05-04 04:19 | 35.47954 | -91.22686 | 41044 ft | 493 kts | 41° |
| 2026-05-04 04:19 | 35.52413 | -91.16373 | 41058 ft | 492 kts | 41° |
| 2026-05-04 04:20 | 35.56900 | -91.10014 | 41055 ft | 492 kts | 42° |
| 2026-05-04 04:20 | 35.61380 | -91.03652 | 41045 ft | 492 kts | 42° |
| 2026-05-04 04:21 | 35.65854 | -90.97287 | 41040 ft | 492 kts | 42° |
| 2026-05-04 04:21 | 35.70328 | -90.90909 | 41035 ft | 492 kts | 42° |
| 2026-05-04 04:22 | 35.74040 | -90.85608 | 41035 ft | 492 kts | 42° |
| 2026-05-04 04:22 | 35.78507 | -90.79218 | 41040 ft | 492 kts | 42° |
| 2026-05-04 04:23 | 35.82967 | -90.72827 | 41037 ft | 492 kts | 42° |